Accueil
METAR-TAF:

METAR-TAF

Aéroports :

Base aérienne de Beauvechain

Beauvechain, Belgique

latitude: 50-45N, longitude: 004-46E, altitude: 105 m

Observation

Le bulletin a été fait il y a 33 minutes, à 06:55 UTC
Vent 8 kt de ouest
Température 6°C
Humidité 100%
Pression 1037 hPa
Visibilité: 3900 m
brume

METAR: EBBE 050655Z AUTO 28008KT 3900 BR BKN003/// OVC005/// 06/06 Q1037 YLO

Heure: 08:28 (07:28 UTC)

Prévision

Le bulletin a été fait il y a 15 heures et 47 minutes, à 15:41 UTC
Prévision valable du 03 à 19 UTC au 04 à 07 UTC
Vent 12 kt de ouest/nord-ouest
Visibilité 10 km ou plus
Nuages fragmentés à une hauteur de 2200 ft
Ciel couvert à une hauteur de 2700 ft
Temporairement
du 03 à 20 UTC au 04 à 07 UTC
Visibilité: 6000 m
Nuages fragmentés à une hauteur de 1300 ft
Ciel couvert à une hauteur de 2200 ft
pluie faible

TAF: EBBE 031541Z 0319/0407 29012KT 9999 BKN022 OVC027 TEMPO 0320/0407 6000 -RA BKN013 OVC022

Observations et prévisions météorologiques de plus de 4000 aéroports (messages METAR et TAF).

Les stations disponibles sont représentées par des disques jaunes et rouges sur la carte.

Passer la souris dessus pour voir le nom de la station.

Cliquer dessus pour voir les observations et prévisions météorologiques.

Pour changer de carte: cliquez sur les boutons verts avec une croix noire pour zoomer, sur le bouton vert avec un tiret pour effectuer un zoom arrière, ou sur les flèches vertes pour les cartes adjacentes.


METAR-TAF: